Time;durP1;ratioP1;P1;durP2;ratioP2;P2;SDS_P1;SDS_P2;PMS_P1;PMS_P2;Temp;Humidity;BMP_temperature;BMP_pressure;BME280_temperature;BME280_humidity;BME280_pressure;Samples;Min_cycle;Max_cycle;Signal;HPM_P1;HPM_P2
2022/04/04 00:00:07;;;;;;;22.15;12.43;;;2.60;67.40;;;;;;5053900;28;20751;-69
2022/04/04 00:02:36;;;;;;;18.95;11.82;;;2.60;67.40;;;;;;5052300;28;20254;-69
2022/04/04 00:05:06;;;;;;;19.17;10.80;;;2.60;67.40;;;;;;5056598;28;20223;-69
2022/04/04 00:07:34;;;;;;;16.13;10.60;;;2.50;67.30;;;;;;5039957;28;20228;-69
2022/04/04 00:10:02;;;;;;;16.35;10.95;;;2.50;67.30;;;;;;5057335;28;20219;-68
2022/04/04 00:12:30;;;;;;;14.50;10.65;;;2.50;67.40;;;;;;5055869;28;20587;-69
2022/04/04 00:14:59;;;;;;;16.63;9.70;;;2.50;67.40;;;;;;5054005;28;20200;-68
2022/04/04 00:17:26;;;;;;;17.55;9.90;;;2.40;67.30;;;;;;5053893;28;20231;-69
2022/04/04 00:19:54;;;;;;;16.02;9.10;;;2.40;67.40;;;;;;5058146;28;20756;-68
2022/04/04 00:22:29;;;;;;;18.10;9.43;;;2.40;67.40;;;;;;5056199;28;20911;-69
2022/04/04 00:24:57;;;;;;;14.68;9.73;;;2.40;67.60;;;;;;5058490;28;20774;-68
2022/04/04 00:27:25;;;;;;;20.17;12.57;;;2.40;67.60;;;;;;5058775;28;20300;-68
2022/04/04 00:29:53;;;;;;;22.17;13.38;;;2.40;67.60;;;;;;5056279;28;20204;-69
2022/04/04 00:32:21;;;;;;;20.50;12.40;;;2.30;67.60;;;;;;5055144;28;20234;-68
2022/04/04 00:34:49;;;;;;;17.98;11.00;;;2.30;67.60;;;;;;5056271;28;20610;-68
2022/04/04 00:37:18;;;;;;;16.73;10.63;;;2.30;67.80;;;;;;5058827;28;20339;-68
2022/04/04 00:39:47;;;;;;;13.93;8.80;;;2.30;67.80;;;;;;5055144;28;20204;-69
2022/04/04 00:42:16;;;;;;;14.63;9.05;;;2.30;67.80;;;;;;5057771;28;20204;-68
2022/04/04 00:44:45;;;;;;;14.07;9.38;;;2.30;67.80;;;;;;5057863;28;20205;-68
2022/04/04 00:47:13;;;;;;;10.60;7.13;;;2.20;67.80;;;;;;5055936;28;20234;-68
2022/04/04 00:49:41;;;;;;;13.80;8.80;;;2.20;67.80;;;;;;5057203;28;20214;-69
2022/04/04 00:52:09;;;;;;;14.27;8.00;;;2.20;67.80;;;;;;5060344;28;20204;-69
2022/04/04 00:54:37;;;;;;;12.18;8.25;;;2.10;67.80;;;;;;5059627;28;20208;-68
2022/04/04 00:57:07;;;;;;;17.23;10.63;;;2.10;67.90;;;;;;5060038;28;20211;-69
2022/04/04 00:59:36;;;;;;;22.83;13.05;;;2.10;67.80;;;;;;5054474;28;20208;-68
2022/04/04 01:02:04;;;;;;;20.25;12.10;;;2.00;68.00;;;;;;5059364;28;20226;-68
2022/04/04 01:04:32;;;;;;;18.02;12.48;;;2.00;67.90;;;;;;5060256;28;20280;-68
2022/04/04 01:07:01;;;;;;;17.10;11.60;;;2.00;68.10;;;;;;5058824;28;20219;-68
2022/04/04 01:09:31;;;;;;;17.92;11.95;;;2.00;68.10;;;;;;5061980;28;20204;-68
2022/04/04 01:12:03;;;;;;;21.70;12.50;;;2.00;68.20;;;;;;5044239;28;20656;-68
2022/04/04 01:14:33;;;;;;;17.77;11.80;;;2.00;68.20;;;;;;5041754;28;20301;-68
2022/04/04 01:17:07;;;;;;;15.65;10.20;;;2.00;68.30;;;;;;5064237;28;20232;-68
2022/04/04 01:19:36;;;;;;;16.17;10.23;;;2.00;68.40;;;;;;5060149;28;20204;-68
2022/04/04 01:22:07;;;;;;;20.25;11.85;;;2.00;68.40;;;;;;5063162;28;20201;-68
2022/04/04 01:24:38;;;;;;;15.50;10.00;;;2.00;68.30;;;;;;5065030;28;20206;-68
2022/04/04 01:27:07;;;;;;;14.10;9.48;;;2.00;68.30;;;;;;5062506;28;20314;-68
2022/04/04 01:29:36;;;;;;;14.45;9.80;;;2.00;68.30;;;;;;5062196;28;20254;-68
2022/04/04 01:32:05;;;;;;;17.75;10.85;;;2.00;68.30;;;;;;5059097;28;20244;-68
2022/04/04 01:34:34;;;;;;;14.70;10.27;;;2.00;68.30;;;;;;5059596;28;20207;-68
2022/04/04 01:37:03;;;;;;;16.27;10.60;;;2.00;68.30;;;;;;5059442;28;20220;-68
2022/04/04 01:39:31;;;;;;;12.88;8.88;;;2.00;68.40;;;;;;5045279;28;20204;-68
2022/04/04 01:42:01;;;;;;;20.33;12.82;;;2.00;68.40;;;;;;5061161;28;20204;-67
2022/04/04 01:44:29;;;;;;;20.50;13.65;;;1.90;68.30;;;;;;5061791;28;20208;-68
2022/04/04 01:46:58;;;;;;;20.30;13.00;;;1.90;68.30;;;;;;5058277;28;20219;-68
2022/04/04 01:49:26;;;;;;;17.48;11.63;;;1.90;68.40;;;;;;5044014;28;20208;-68
2022/04/04 01:51:54;;;;;;;16.27;10.48;;;1.90;68.50;;;;;;5057542;28;20223;-68
2022/04/04 01:54:22;;;;;;;21.17;13.05;;;1.90;68.40;;;;;;5052512;28;20201;-69
2022/04/04 01:56:50;;;;;;;17.50;11.00;;;1.90;68.50;;;;;;5054713;28;20193;-68
2022/04/04 01:59:20;;;;;;;19.00;12.45;;;1.90;68.40;;;;;;5052861;28;20231;-68
2022/04/04 02:01:47;;;;;;;22.45;13.70;;;1.90;68.40;;;;;;5056162;28;20220;-68
2022/04/04 02:04:16;;;;;;;35.90;20.85;;;1.90;68.50;;;;;;5045228;28;20600;-68
2022/04/04 02:06:44;;;;;;;19.40;12.80;;;1.80;68.30;;;;;;5060178;28;20219;-68
2022/04/04 02:09:12;;;;;;;15.38;12.02;;;1.80;68.50;;;;;;5058984;28;20235;-68
2022/04/04 02:11:40;;;;;;;17.10;9.93;;;1.70;68.40;;;;;;5060445;28;20690;-68
2022/04/04 02:14:08;;;;;;;21.38;13.20;;;1.70;68.60;;;;;;5053139;28;20193;-68
2022/04/04 02:16:37;;;;;;;25.98;13.57;;;1.70;68.70;;;;;;5051687;28;21189;-68
2022/04/04 02:19:20;;;;;;;25.75;13.13;;;1.70;68.70;;;;;;5054104;28;20303;-68
2022/04/04 02:21:49;;;;;;;21.90;12.35;;;1.70;68.80;;;;;;5048000;28;20223;-69
2022/04/04 02:24:16;;;;;;;21.90;13.80;;;1.70;68.80;;;;;;5059437;28;20204;-69
2022/04/04 02:27:00;;;;;;;24.83;13.65;;;1.70;68.80;;;;;;5059103;28;20299;-68
2022/04/04 02:29:28;;;;;;;12.60;8.95;;;1.80;68.90;;;;;;5045051;28;20721;-68
2022/04/04 02:31:57;;;;;;;14.50;8.70;;;1.80;68.90;;;;;;5058928;28;20334;-68
2022/04/04 02:34:25;;;;;;;14.65;8.70;;;1.80;68.90;;;;;;5057060;28;20195;-68
2022/04/04 02:36:53;;;;;;;14.05;9.10;;;1.80;68.90;;;;;;5058627;28;20224;-67
2022/04/04 02:39:21;;;;;;;12.85;9.55;;;1.80;68.90;;;;;;5057779;28;21003;-68
2022/04/04 02:41:49;;;;;;;12.60;8.85;;;1.80;68.80;;;;;;5056101;28;20283;-67
2022/04/04 02:44:17;;;;;;;11.60;8.10;;;1.80;68.80;;;;;;5046834;28;20264;-67
2022/04/04 02:46:46;;;;;;;12.45;9.05;;;1.80;68.90;;;;;;5053431;28;20228;-68
2022/04/04 02:49:16;;;;;;;12.57;8.27;;;1.80;68.90;;;;;;5057560;28;20307;-67
2022/04/04 02:51:44;;;;;;;12.18;7.95;;;1.80;68.90;;;;;;5057974;28;20223;-68
2022/04/04 02:54:12;;;;;;;12.05;8.43;;;1.80;68.90;;;;;;5039419;28;20251;-69
2022/04/04 02:56:41;;;;;;;13.68;8.77;;;1.80;68.90;;;;;;5056181;28;20638;-67
2022/04/04 02:59:10;;;;;;;11.70;8.50;;;1.80;68.90;;;;;;5059483;28;20228;-67
2022/04/04 03:01:38;;;;;;;12.32;8.57;;;1.80;68.80;;;;;;5060232;28;20233;-67
2022/04/04 03:04:06;;;;;;;16.33;9.50;;;1.70;68.80;;;;;;5054386;28;20261;-68
2022/04/04 03:06:36;;;;;;;12.23;8.38;;;1.70;68.70;;;;;;5055561;28;20855;-67
2022/04/04 03:09:04;;;;;;;18.10;11.10;;;1.60;68.60;;;;;;5058742;28;20235;-68
2022/04/04 03:11:38;;;;;;;18.15;10.82;;;1.60;68.80;;;;;;5054674;28;20196;-67
2022/04/04 03:14:06;;;;;;;16.90;12.50;;;1.60;69.00;;;;;;5057802;28;20203;-67
2022/04/04 03:16:34;;;;;;;20.92;12.23;;;1.60;68.90;;;;;;5054872;28;20223;-67
2022/04/04 03:19:03;;;;;;;18.02;11.38;;;1.60;69.10;;;;;;5053650;28;20802;-67
2022/04/04 03:21:31;;;;;;;16.13;10.10;;;1.60;69.20;;;;;;5052081;28;20216;-67
2022/04/04 03:24:00;;;;;;;16.40;10.57;;;1.60;69.20;;;;;;5050602;28;20224;-68
2022/04/04 03:26:34;;;;;;;13.07;9.77;;;1.70;69.20;;;;;;5055715;28;20223;-68
2022/04/04 03:29:02;;;;;;;14.10;10.23;;;1.70;69.10;;;;;;5056888;28;20642;-68
2022/04/04 03:31:30;;;;;;;16.00;9.60;;;1.70;69.20;;;;;;5043641;28;20769;-69
2022/04/04 03:33:59;;;;;;;16.10;10.95;;;1.70;69.20;;;;;;5060515;28;20209;-68
2022/04/04 03:36:27;;;;;;;13.52;9.07;;;1.70;69.10;;;;;;5055315;28;20261;-68
2022/04/04 03:38:55;;;;;;;13.98;10.50;;;1.70;69.20;;;;;;5052617;28;20297;-69
2022/04/04 03:41:24;;;;;;;13.70;9.10;;;1.70;69.20;;;;;;5054343;28;20199;-69
2022/04/04 03:43:52;;;;;;;14.93;9.48;;;1.70;69.10;;;;;;5060231;28;20208;-69
2022/04/04 03:46:20;;;;;;;14.27;9.80;;;1.70;69.20;;;;;;5059838;28;20239;-69
2022/04/04 03:48:48;;;;;;;15.48;10.00;;;1.70;69.00;;;;;;5056065;28;20216;-69
2022/04/04 03:51:16;;;;;;;13.82;9.52;;;1.60;69.00;;;;;;5054524;28;20212;-68
2022/04/04 03:53:50;;;;;;;14.57;10.23;;;1.60;69.00;;;;;;5055580;28;20669;-69
2022/04/04 03:56:18;;;;;;;41.85;18.25;;;1.60;69.20;;;;;;5056906;28;20208;-68
2022/04/04 03:58:47;;;;;;;45.17;22.55;;;1.60;69.20;;;;;;5057172;28;20227;-69
2022/04/04 04:01:15;;;;;;;29.88;16.50;;;1.50;69.10;;;;;;5058760;28;20713;-69
2022/04/04 04:03:43;;;;;;;16.70;11.70;;;1.50;69.20;;;;;;5038822;28;20212;-69
2022/04/04 04:06:17;;;;;;;20.10;12.13;;;1.50;69.00;;;;;;5058984;28;20208;-69
2022/04/04 04:08:47;;;;;;;18.88;12.68;;;1.50;69.10;;;;;;5057579;28;20227;-68
2022/04/04 04:11:18;;;;;;;17.20;11.57;;;1.50;69.30;;;;;;5054132;28;20196;-69
2022/04/04 04:13:48;;;;;;;19.35;13.57;;;1.50;69.40;;;;;;5055870;28;20287;-69
2022/04/04 04:16:16;;;;;;;19.42;12.35;;;1.50;69.50;;;;;;5058035;28;20247;-68
2022/04/04 04:18:44;;;;;;;23.15;11.40;;;1.50;69.40;;;;;;5057723;28;20240;-68
2022/04/04 04:21:18;;;;;;;20.35;14.07;;;1.50;69.30;;;;;;5059432;28;20207;-70
2022/04/04 04:23:46;;;;;;;20.98;14.27;;;1.50;69.40;;;;;;5063577;28;20200;-68
2022/04/04 04:26:15;;;;;;;20.98;14.20;;;1.50;69.40;;;;;;5060794;28;20200;-68
2022/04/04 04:28:43;;;;;;;16.23;12.13;;;1.60;69.50;;;;;;5060554;28;20933;-68
2022/04/04 04:31:14;;;;;;;21.88;13.15;;;1.60;69.60;;;;;;5059182;28;20225;-69
2022/04/04 04:33:42;;;;;;;18.48;12.95;;;1.60;69.40;;;;;;5066049;28;20214;-68
2022/04/04 04:36:16;;;;;;;23.35;14.23;;;1.60;69.40;;;;;;5061751;28;20203;-68
2022/04/04 04:38:44;;;;;;;19.55;13.40;;;1.60;69.50;;;;;;5062140;28;20240;-68
2022/04/04 04:41:12;;;;;;;19.27;13.25;;;1.60;69.50;;;;;;5064662;28;20192;-68
2022/04/04 04:43:41;;;;;;;21.55;14.25;;;1.60;69.50;;;;;;5060319;28;20221;-68
2022/04/04 04:46:10;;;;;;;40.50;22.02;;;1.60;69.50;;;;;;5052343;28;20227;-68
2022/04/04 04:48:40;;;;;;;47.70;24.40;;;1.60;69.40;;;;;;5058750;28;20227;-68
2022/04/04 04:51:08;;;;;;;54.35;27.83;;;1.60;69.50;;;;;;5061479;28;20196;-68
2022/04/04 04:53:37;;;;;;;43.30;23.35;;;1.60;69.50;;;;;;5054913;28;20211;-68
2022/04/04 04:56:05;;;;;;;51.42;27.65;;;1.60;69.50;;;;;;5055882;28;20200;-68
2022/04/04 04:58:33;;;;;;;45.47;24.40;;;1.60;69.40;;;;;;5057175;28;20215;-69
2022/04/04 05:01:01;;;;;;;41.20;23.90;;;1.60;69.50;;;;;;5062050;28;20231;-68
2022/04/04 05:03:29;;;;;;;35.72;21.77;;;1.60;69.40;;;;;;5059922;28;20211;-68
2022/04/04 05:05:59;;;;;;;54.53;29.75;;;1.50;69.50;;;;;;5059738;28;20210;-68
2022/04/04 05:08:26;;;;;;;73.13;37.38;;;1.50;69.50;;;;;;5055799;28;20229;-68
2022/04/04 05:10:54;;;;;;;56.75;29.45;;;1.50;69.50;;;;;;5058810;28;20669;-68
2022/04/04 05:13:22;;;;;;;66.50;32.72;;;1.50;69.50;;;;;;5058547;28;20280;-68
2022/04/04 05:15:58;;;;;;;38.40;22.15;;;1.50;69.60;;;;;;5061286;28;20318;-67
2022/04/04 05:18:27;;;;;;;30.33;17.25;;;1.50;69.80;;;;;;5058090;28;20228;-68
2022/04/04 05:20:55;;;;;;;42.33;21.98;;;1.60;69.80;;;;;;5057978;28;20219;-68
2022/04/04 05:23:25;;;;;;;44.83;23.92;;;1.60;70.00;;;;;;5042694;28;20212;-68
2022/04/04 05:25:52;;;;;;;34.50;21.05;;;1.70;70.00;;;;;;5061319;28;20204;-68
2022/04/04 05:28:21;;;;;;;31.00;18.38;;;1.80;70.00;;;;;;5057392;28;20223;-68
2022/04/04 05:30:54;;;;;;;39.33;21.58;;;1.90;70.10;;;;;;5055823;28;20729;-68
2022/04/04 05:33:22;;;;;;;63.60;33.60;;;1.90;70.10;;;;;;5058528;28;20680;-68
2022/04/04 05:35:52;;;;;;;26.95;16.80;;;2.00;70.00;;;;;;5057302;28;20211;-68
2022/04/04 05:38:20;;;;;;;22.70;15.57;;;2.10;70.10;;;;;;5057497;28;20648;-68
2022/04/04 05:40:50;;;;;;;25.48;16.60;;;2.10;70.10;;;;;;5056061;28;20205;-67
2022/04/04 05:43:18;;;;;;;24.83;14.90;;;2.20;70.10;;;;;;5057290;28;21793;-67
2022/04/04 05:45:49;;;;;;;22.05;14.07;;;2.30;70.10;;;;;;5040785;28;20247;-67
2022/04/04 05:48:17;;;;;;;19.63;14.05;;;2.40;70.10;;;;;;5056224;28;20215;-67
2022/04/04 05:50:45;;;;;;;22.75;14.90;;;2.50;70.10;;;;;;5060496;28;20282;-67
2022/04/04 05:53:13;;;;;;;20.73;14.55;;;2.50;70.00;;;;;;5055161;28;20246;-67
2022/04/04 05:55:41;;;;;;;20.38;14.32;;;2.60;69.90;;;;;;5056366;28;20211;-67
2022/04/04 05:58:10;;;;;;;21.27;14.25;;;2.70;70.00;;;;;;5058722;28;20228;-67
2022/04/04 06:00:38;;;;;;;20.63;14.73;;;2.70;69.90;;;;;;5053958;28;20235;-68
2022/04/04 06:03:06;;;;;;;20.33;14.23;;;2.70;69.80;;;;;;5055314;28;20204;-68
2022/04/04 06:05:34;;;;;;;19.77;14.77;;;2.70;69.80;;;;;;5056979;28;20211;-68
2022/04/04 06:08:03;;;;;;;21.92;14.70;;;2.80;69.80;;;;;;5058874;28;20879;-68
2022/04/04 06:10:31;;;;;;;22.20;14.40;;;2.80;69.80;;;;;;5056850;28;20250;-69
2022/04/04 06:12:59;;;;;;;22.63;14.80;;;2.80;69.80;;;;;;5057712;28;20204;-68
2022/04/04 06:15:28;;;;;;;21.52;15.52;;;2.80;69.80;;;;;;5054342;28;20242;-68
2022/04/04 06:17:56;;;;;;;20.05;14.02;;;2.90;69.70;;;;;;5054860;28;20217;-68
2022/04/04 06:20:25;;;;;;;21.95;15.13;;;2.90;69.80;;;;;;5060610;28;20883;-68
2022/04/04 06:22:53;;;;;;;23.45;15.07;;;3.00;69.80;;;;;;5059692;28;20255;-68
2022/04/04 06:25:27;;;;;;;21.80;15.38;;;3.00;69.80;;;;;;5058522;28;20320;-67
2022/04/04 06:27:56;;;;;;;19.83;14.63;;;3.10;69.80;;;;;;5057891;28;20288;-68
2022/04/04 06:30:24;;;;;;;19.35;15.02;;;3.20;69.80;;;;;;5055063;28;20212;-68
2022/04/04 06:32:54;;;;;;;21.58;14.55;;;3.20;69.60;;;;;;5060400;28;20591;-68
2022/04/04 06:35:24;;;;;;;19.30;14.10;;;3.20;69.50;;;;;;5040221;28;20210;-68
2022/04/04 06:37:52;;;;;;;22.10;15.45;;;3.20;69.50;;;;;;5058460;28;20941;-68
2022/04/04 06:40:21;;;;;;;21.55;15.10;;;3.20;69.40;;;;;;5040005;28;20573;-68
2022/04/04 06:42:49;;;;;;;21.45;15.43;;;3.20;69.50;;;;;;5055253;28;20209;-68
2022/04/04 06:45:18;;;;;;;21.95;14.77;;;3.20;69.50;;;;;;5055404;28;20587;-66
2022/04/04 06:47:46;;;;;;;18.40;13.85;;;3.20;69.50;;;;;;5057323;28;20910;-68
2022/04/04 06:50:15;;;;;;;23.83;14.93;;;3.20;69.50;;;;;;5055110;28;20211;-68
2022/04/04 06:52:44;;;;;;;24.10;15.20;;;3.20;69.50;;;;;;5056786;28;20604;-67
2022/04/04 06:55:32;;;;;;;22.55;15.05;;;3.30;69.50;;;;;;5058231;28;20201;-67
2022/04/04 06:58:00;;;;;;;18.95;14.75;;;3.20;69.50;;;;;;5053231;28;20332;-67
2022/04/04 07:00:28;;;;;;;20.92;13.95;;;3.30;69.60;;;;;;5050922;28;20258;-67
2022/04/04 07:02:58;;;;;;;24.05;13.90;;;3.30;69.60;;;;;;5060447;28;20212;-69
2022/04/04 07:05:28;;;;;;;21.15;13.88;;;3.30;69.60;;;;;;5060856;28;20297;-68
2022/04/04 07:08:02;;;;;;;18.30;14.07;;;3.30;69.60;;;;;;5058528;28;20286;-68
2022/04/04 07:10:30;;;;;;;21.23;14.80;;;3.30;69.80;;;;;;5056170;28;20204;-68
2022/04/04 07:12:58;;;;;;;18.20;13.73;;;3.40;69.70;;;;;;5058144;28;20204;-68
2022/04/04 07:15:27;;;;;;;18.30;13.00;;;3.40;69.80;;;;;;5037681;28;20232;-68
2022/04/04 07:17:55;;;;;;;20.45;13.27;;;3.50;69.80;;;;;;5054492;28;20243;-68
2022/04/04 07:20:23;;;;;;;17.15;12.32;;;3.50;69.80;;;;;;5053986;28;20199;-69
2022/04/04 07:22:53;;;;;;;17.30;12.43;;;3.50;69.70;;;;;;5054645;28;20211;-69
2022/04/04 07:25:21;;;;;;;15.10;12.32;;;3.60;69.80;;;;;;5046741;28;20208;-69
2022/04/04 07:27:49;;;;;;;18.00;11.65;;;3.60;69.80;;;;;;5055356;28;20740;-67
2022/04/04 07:30:19;;;;;;;16.77;11.50;;;3.70;69.80;;;;;;5054366;28;20304;-68
2022/04/04 07:32:48;;;;;;;15.77;11.57;;;3.70;69.80;;;;;;5054152;28;20196;-69
2022/04/04 07:35:17;;;;;;;16.40;11.20;;;3.80;69.80;;;;;;5056958;28;20770;-69
2022/04/04 07:37:47;;;;;;;26.35;11.13;;;3.90;69.80;;;;;;5057417;28;20324;-67
2022/04/04 07:40:18;;;;;;;15.20;10.32;;;3.90;69.80;;;;;;5058479;28;20200;-69
2022/04/04 07:42:47;;;;;;;16.00;11.18;;;4.00;69.70;;;;;;5041858;28;20220;-68
2022/04/04 07:45:17;;;;;;;15.00;10.05;;;4.00;69.60;;;;;;5062725;28;20200;-68
2022/04/04 07:47:47;;;;;;;16.80;10.48;;;4.00;69.50;;;;;;5059783;28;20223;-69
2022/04/04 07:50:15;;;;;;;15.52;10.15;;;4.10;69.50;;;;;;5062389;28;20259;-69
2022/04/04 07:52:43;;;;;;;14.02;9.93;;;4.10;69.40;;;;;;5062563;28;20220;-68
2022/04/04 07:55:11;;;;;;;16.80;9.73;;;4.20;69.40;;;;;;5069869;28;20200;-69
2022/04/04 07:57:42;;;;;;;12.10;8.70;;;4.20;69.30;;;;;;5069003;28;20223;-69
2022/04/04 08:00:14;;;;;;;14.70;10.20;;;4.20;69.00;;;;;;5069368;28;20199;-69
2022/04/04 08:02:43;;;;;;;13.38;9.60;;;4.20;69.00;;;;;;5067326;28;20306;-69
2022/04/04 08:05:11;;;;;;;16.20;9.50;;;4.30;69.10;;;;;;5059258;28;20202;-69
2022/04/04 08:07:40;;;;;;;15.88;9.68;;;4.30;69.10;;;;;;5063433;28;20281;-69
2022/04/04 08:10:09;;;;;;;12.32;9.50;;;4.40;69.10;;;;;;5064149;28;20211;-69
2022/04/04 08:12:37;;;;;;;14.90;9.93;;;4.40;69.10;;;;;;5060406;28;20208;-67
2022/04/04 08:15:08;;;;;;;14.57;8.93;;;4.40;68.90;;;;;;5058349;28;20215;-70
2022/04/04 08:17:37;;;;;;;13.90;9.85;;;4.50;68.90;;;;;;5056760;28;20549;-70
2022/04/04 08:20:08;;;;;;;11.75;8.05;;;4.50;68.90;;;;;;5053410;28;20218;-67
2022/04/04 08:22:41;;;;;;;11.13;8.05;;;4.50;68.30;;;;;;5060953;28;20239;-68
2022/04/04 08:25:09;;;;;;;12.50;8.82;;;4.60;68.70;;;;;;5059631;28;20218;-67
2022/04/04 08:27:38;;;;;;;11.63;7.78;;;4.60;68.50;;;;;;5060401;28;20237;-67
2022/04/04 08:30:10;;;;;;;12.50;7.72;;;4.70;68.20;;;;;;5056395;28;20224;-68
2022/04/04 08:32:39;;;;;;;9.85;7.80;;;4.70;68.00;;;;;;5052863;28;20227;-67
2022/04/04 08:35:09;;;;;;;12.98;8.70;;;4.70;67.90;;;;;;5059725;28;20202;-68
2022/04/04 08:37:39;;;;;;;11.95;8.35;;;4.80;67.60;;;;;;5047797;28;20228;-68
2022/04/04 08:40:09;;;;;;;11.90;8.45;;;4.80;68.10;;;;;;5062629;28;20591;-68
2022/04/04 08:42:37;;;;;;;12.85;8.77;;;4.90;68.20;;;;;;5060886;28;20204;-69
2022/04/04 08:45:09;;;;;;;14.00;8.25;;;4.90;67.80;;;;;;5054378;28;20269;-68
2022/04/04 08:47:38;;;;;;;12.48;8.30;;;5.00;67.80;;;;;;5055362;28;20235;-70
2022/04/04 08:50:06;;;;;;;13.98;8.07;;;5.00;67.50;;;;;;5054506;28;20957;-69
2022/04/04 08:52:35;;;;;;;10.20;7.82;;;5.00;67.50;;;;;;5056116;28;20752;-70
2022/04/04 08:55:03;;;;;;;11.90;7.97;;;5.10;67.40;;;;;;5057658;28;20932;-69
2022/04/04 08:57:31;;;;;;;9.77;7.38;;;5.10;67.40;;;;;;5059978;28;20220;-68
2022/04/04 08:59:59;;;;;;;14.18;8.20;;;5.20;67.40;;;;;;5059038;28;20192;-68
2022/04/04 09:02:28;;;;;;;12.50;8.98;;;5.20;67.40;;;;;;5061299;28;20235;-70
2022/04/04 09:05:03;;;;;;;11.15;7.25;;;5.30;67.40;;;;;;5058935;28;20196;-70
2022/04/04 09:07:31;;;;;;;12.02;8.10;;;5.30;67.30;;;;;;5059282;28;20224;-70
2022/04/04 09:10:00;;;;;;;15.35;7.78;;;5.40;67.20;;;;;;5061220;28;20587;-70
2022/04/04 09:12:28;;;;;;;11.25;8.43;;;5.50;67.00;;;;;;5060275;28;20207;-69
2022/04/04 09:14:58;;;;;;;11.32;7.55;;;5.60;67.20;;;;;;5062004;28;20212;-69
2022/04/04 09:17:32;;;;;;;10.55;7.25;;;5.60;66.60;;;;;;5063102;28;20220;-68
2022/04/04 09:20:09;;;;;;;10.10;7.50;;;5.70;66.80;;;;;;5061393;28;20216;-69
2022/04/04 09:22:51;;;;;;;10.48;6.65;;;5.70;66.50;;;;;;5046952;28;20856;-69
2022/04/04 09:25:31;;;;;;;10.18;7.38;;;5.80;66.40;;;;;;5059147;28;20542;-68
2022/04/04 09:28:14;;;;;;;15.23;8.25;;;5.80;66.20;;;;;;5057374;28;20248;-69
2022/04/04 09:30:42;;;;;;;8.80;6.88;;;5.80;66.40;;;;;;5057280;28;20240;-70
2022/04/04 09:33:14;;;;;;;9.75;7.55;;;5.90;66.20;;;;;;5041595;28;20209;-69
2022/04/04 09:35:46;;;;;;;9.80;7.32;;;6.00;66.10;;;;;;5062033;28;20207;-69
2022/04/04 09:38:16;;;;;;;11.18;8.13;;;6.00;66.10;;;;;;5062504;28;20240;-69
2022/04/04 09:40:44;;;;;;;10.18;7.95;;;6.00;65.90;;;;;;5062513;28;20238;-69
2022/04/04 09:43:12;;;;;;;11.02;8.48;;;6.10;66.20;;;;;;5060904;28;20204;-69
2022/04/04 09:45:42;;;;;;;10.27;7.90;;;6.10;66.00;;;;;;5057187;28;20247;-69
2022/04/04 09:48:12;;;;;;;11.60;7.90;;;6.20;65.90;;;;;;5058814;28;20307;-70
2022/04/04 09:50:45;;;;;;;12.85;8.10;;;6.20;65.70;;;;;;5059740;28;20223;-68
2022/04/04 09:53:16;;;;;;;12.43;8.48;;;6.30;65.50;;;;;;5062111;28;20196;-68
2022/04/04 09:55:46;;;;;;;10.70;7.75;;;6.30;65.60;;;;;;5059663;28;20944;-69
2022/04/04 09:58:16;;;;;;;9.65;7.40;;;6.40;65.80;;;;;;5058223;28;20243;-69
2022/04/04 10:00:48;;;;;;;11.55;8.75;;;6.40;65.00;;;;;;5055143;28;20236;-69
2022/04/04 10:03:17;;;;;;;11.80;9.07;;;6.40;64.90;;;;;;5055786;28;20203;-69
2022/04/04 10:05:50;;;;;;;12.48;8.25;;;6.40;64.50;;;;;;5052214;28;20295;-69
2022/04/04 10:08:20;;;;;;;11.60;8.57;;;6.40;64.10;;;;;;5059225;28;20227;-71
2022/04/04 10:10:49;;;;;;;11.73;8.60;;;6.40;64.60;;;;;;5058131;28;20216;-69
2022/04/04 10:13:18;;;;;;;10.00;8.35;;;6.30;64.00;;;;;;5061307;28;20543;-69
2022/04/04 10:15:48;;;;;;;11.15;9.02;;;6.30;64.30;;;;;;5037873;28;20235;-70
2022/04/04 10:18:16;;;;;;;13.38;8.95;;;6.30;64.50;;;;;;5055500;28;20224;-69
2022/04/04 10:20:52;;;;;;;10.88;8.65;;;6.20;64.70;;;;;;5037905;28;20192;-69
2022/04/04 10:23:21;;;;;;;10.70;7.63;;;6.20;64.30;;;;;;5054983;28;20798;-70
2022/04/04 10:25:51;;;;;;;9.25;7.95;;;6.30;64.60;;;;;;5060063;28;20200;-69
2022/04/04 10:28:26;;;;;;;11.68;8.32;;;6.30;64.20;;;;;;5060879;28;20842;-69
2022/04/04 10:30:58;;;;;;;11.55;9.10;;;6.30;64.50;;;;;;5049515;28;20220;-70
2022/04/04 10:33:33;;;;;;;12.65;8.70;;;6.40;64.80;;;;;;5053811;28;20227;-70
2022/04/04 10:36:05;;;;;;;11.27;9.05;;;6.40;64.60;;;;;;5041749;28;20196;-70
2022/04/04 10:38:35;;;;;;;10.98;8.60;;;6.50;64.80;;;;;;5056342;28;20240;-70
2022/04/04 10:41:07;;;;;;;12.85;9.82;;;6.50;64.90;;;;;;5059826;28;20200;-70
2022/04/04 10:43:37;;;;;;;10.82;9.32;;;6.60;64.60;;;;;;5057761;28;20564;-69
2022/04/04 10:46:10;;;;;;;13.27;10.00;;;6.70;64.70;;;;;;5054938;28;20223;-69
2022/04/04 10:48:39;;;;;;;12.68;8.75;;;6.70;64.60;;;;;;5054809;28;20221;-69
2022/04/04 10:51:17;;;;;;;12.02;9.02;;;6.70;64.00;;;;;;5059709;28;20208;-70
2022/04/04 10:53:48;;;;;;;14.70;9.05;;;6.70;64.40;;;;;;5057103;28;20886;-70
2022/04/04 10:56:19;;;;;;;12.25;8.63;;;6.80;64.60;;;;;;5058650;28;20196;-70
2022/04/04 10:58:47;;;;;;;11.85;8.88;;;6.80;64.40;;;;;;5059065;28;20736;-70
2022/04/04 11:01:17;;;;;;;11.45;8.75;;;6.90;64.50;;;;;;5056462;28;20246;-69
2022/04/04 11:04:00;;;;;;;14.35;8.95;;;7.00;64.40;;;;;;5058257;28;20204;-70
2022/04/04 11:09:50;;;;;;;10.98;8.35;;;7.10;64.50;;;;;;5022738;28;20771;-70
2022/04/04 11:12:22;;;;;;;10.80;8.02;;;7.10;64.00;;;;;;5066404;28;20220;-69
2022/04/04 11:14:57;;;;;;;12.48;8.57;;;7.20;64.10;;;;;;5060300;28;20204;-70
2022/04/04 11:17:33;;;;;;;11.98;8.20;;;7.10;63.30;;;;;;5061674;28;20609;-69
2022/04/04 11:20:10;;;;;;;10.02;8.02;;;7.10;63.90;;;;;;5065726;28;20216;-70
2022/04/04 11:22:45;;;;;;;11.18;8.70;;;7.10;63.80;;;;;;5059111;28;20680;-70
2022/04/04 11:25:18;;;;;;;10.35;7.60;;;7.10;63.70;;;;;;5054054;28;20196;-69
2022/04/04 11:27:48;;;;;;;10.52;7.40;;;7.10;63.90;;;;;;5057443;28;20232;-70
2022/04/04 11:30:17;;;;;;;11.30;8.43;;;7.20;63.80;;;;;;5052735;28;20714;-69
2022/04/04 11:32:49;;;;;;;11.63;8.50;;;7.20;63.10;;;;;;5054945;28;20227;-69
2022/04/04 11:35:20;;;;;;;10.80;8.57;;;7.20;63.40;;;;;;5036213;28;20212;-69
2022/04/04 11:37:51;;;;;;;11.90;8.35;;;7.30;63.50;;;;;;5051212;28;20311;-69
2022/04/04 11:40:23;;;;;;;10.25;7.95;;;7.30;63.40;;;;;;5049227;28;20216;-70
2022/04/04 11:42:52;;;;;;;10.68;8.05;;;7.40;63.30;;;;;;5041554;28;20290;-69
2022/04/04 11:45:22;;;;;;;10.20;7.88;;;7.40;63.40;;;;;;5053924;28;20216;-69
2022/04/04 11:47:55;;;;;;;12.00;8.00;;;7.40;63.60;;;;;;5033739;28;20250;-68
2022/04/04 11:50:26;;;;;;;11.13;8.30;;;7.60;63.70;;;;;;5056468;28;20197;-70
2022/04/04 11:52:59;;;;;;;11.85;7.45;;;7.70;63.60;;;;;;5051857;28;20942;-69
2022/04/04 11:55:28;;;;;;;9.63;7.57;;;7.70;63.60;;;;;;5056239;28;20211;-70
2022/04/04 11:57:58;;;;;;;9.90;7.57;;;7.80;63.50;;;;;;5051297;28;20535;-68
2022/04/04 12:00:30;;;;;;;9.73;7.25;;;7.90;63.30;;;;;;5049621;28;20459;-69
2022/04/04 12:03:04;;;;;;;10.80;8.50;;;7.90;62.80;;;;;;5052507;28;20215;-68
2022/04/04 12:05:33;;;;;;;10.65;7.88;;;7.80;62.40;;;;;;5052637;28;20192;-68
2022/04/04 12:08:03;;;;;;;11.18;7.47;;;7.80;62.70;;;;;;5053394;28;20263;-70
2022/04/04 12:10:33;;;;;;;9.82;8.10;;;7.90;62.30;;;;;;5052767;28;20266;-70
2022/04/04 12:13:03;;;;;;;11.82;7.93;;;7.90;62.70;;;;;;5055059;28;20220;-68
2022/04/04 12:15:33;;;;;;;11.25;7.50;;;7.90;62.40;;;;;;5055854;28;20224;-68
2022/04/04 12:18:03;;;;;;;10.73;8.35;;;7.90;62.10;;;;;;5056376;28;20223;-68
2022/04/04 12:20:38;;;;;;;12.18;8.65;;;7.90;62.60;;;;;;5057701;28;20208;-68
2022/04/04 12:25:56;;;;;;;10.03;7.80;;;7.90;61.90;;;;;;5057523;28;20867;-69
2022/04/04 12:28:27;;;;;;;13.27;8.57;;;7.90;62.20;;;;;;5054253;28;20489;-68
2022/04/04 12:30:56;;;;;;;13.18;8.57;;;8.00;62.10;;;;;;5052123;28;20224;-69
2022/04/04 12:33:33;;;;;;;12.77;8.23;;;8.00;62.20;;;;;;5053416;28;20205;-69
2022/04/04 12:36:02;;;;;;;10.25;7.95;;;8.10;61.90;;;;;;5056709;28;20214;-69
2022/04/04 12:38:34;;;;;;;10.15;8.15;;;8.10;61.70;;;;;;5040702;28;20278;-68
2022/04/04 12:41:04;;;;;;;10.30;8.50;;;8.10;62.00;;;;;;5057159;28;20205;-70
2022/04/04 12:43:32;;;;;;;11.10;8.07;;;8.10;61.80;;;;;;5058417;28;20455;-68
2022/04/04 12:46:00;;;;;;;11.50;9.00;;;8.10;61.80;;;;;;5056656;28;20255;-68
2022/04/04 12:48:36;;;;;;;10.90;7.53;;;8.20;61.70;;;;;;5057352;28;20474;-69
2022/04/04 12:51:06;;;;;;;11.27;7.95;;;8.20;61.20;;;;;;5058293;28;20211;-68
2022/04/04 12:53:49;;;;;;;10.15;8.13;;;8.10;60.70;;;;;;5058875;28;20204;-69
2022/04/04 12:56:17;;;;;;;12.95;8.32;;;8.10;61.20;;;;;;5056475;28;20199;-69
2022/04/04 12:59:03;;;;;;;11.03;8.90;;;8.10;61.50;;;;;;5054785;28;20728;-69
2022/04/04 13:01:30;;;;;;;10.33;8.10;;;8.20;60.80;;;;;;5060038;28;20485;-69